Time;durP1;ratioP1;P1;durP2;ratioP2;P2;SDS_P1;SDS_P2;PMS_P1;PMS_P2;Temp;Humidity;BMP_temperature;BMP_pressure;BME280_temperature;BME280_humidity;BME280_pressure;Samples;Min_cycle;Max_cycle;Signal;HPM_P1;HPM_P2
2023/07/07 00:01:50;;;;;;;6.13;4.70;;;16.60;99.90;;;;;;5072299;28;20400;-83
2023/07/07 00:04:17;;;;;;;6.30;3.93;;;16.60;99.90;;;;;;5069911;28;20397;-82
2023/07/07 00:06:43;;;;;;;4.60;3.60;;;16.60;99.90;;;;;;5071927;28;20404;-84
2023/07/07 00:09:08;;;;;;;4.70;4.05;;;16.60;99.90;;;;;;5069879;28;20496;-84
2023/07/07 00:11:34;;;;;;;4.40;4.00;;;16.40;99.90;;;;;;5072784;28;20378;-83
2023/07/07 00:14:00;;;;;;;4.60;3.90;;;16.40;99.90;;;;;;5072451;28;20434;-84
2023/07/07 00:16:27;;;;;;;5.25;4.00;;;16.40;99.90;;;;;;5071061;28;20397;-83
2023/07/07 00:19:00;;;;;;;5.80;4.00;;;16.40;99.90;;;;;;5070615;28;20409;-83
2023/07/07 00:21:26;;;;;;;3.88;3.47;;;16.40;99.90;;;;;;5070830;28;20512;-83
2023/07/07 00:23:54;;;;;;;4.90;4.00;;;16.40;99.90;;;;;;5070946;28;20431;-83
2023/07/07 00:26:21;;;;;;;4.75;4.25;;;16.50;99.90;;;;;;5070264;28;20912;-83
2023/07/07 00:28:47;;;;;;;7.03;4.00;;;16.50;99.90;;;;;;5069816;28;20393;-83
2023/07/07 00:31:14;;;;;;;6.43;4.10;;;16.40;99.90;;;;;;5071168;28;20381;-83
2023/07/07 00:33:40;;;;;;;4.72;3.22;;;16.50;99.90;;;;;;5071117;28;20396;-84
2023/07/07 00:36:05;;;;;;;5.77;3.97;;;16.50;99.90;;;;;;5073471;28;20449;-83
2023/07/07 00:38:31;;;;;;;5.30;4.27;;;16.40;99.90;;;;;;5070794;28;20417;-83
2023/07/07 00:41:01;;;;;;;4.90;4.00;;;16.50;99.90;;;;;;5070775;28;20390;-83
2023/07/07 00:43:27;;;;;;;5.25;4.22;;;16.40;99.90;;;;;;5070619;28;20381;-83
2023/07/07 00:45:53;;;;;;;4.40;4.00;;;16.30;99.90;;;;;;5071031;28;20394;-84
2023/07/07 00:48:24;;;;;;;4.75;3.90;;;16.30;99.90;;;;;;5071206;28;20391;-83
2023/07/07 00:50:56;;;;;;;4.50;3.90;;;16.30;99.90;;;;;;5070174;28;20393;-83
2023/07/07 00:53:22;;;;;;;5.00;4.10;;;16.20;99.90;;;;;;5050619;28;20399;-83
2023/07/07 00:56:08;;;;;;;5.37;4.40;;;16.20;99.90;;;;;;5049772;28;20407;-83
2023/07/07 00:58:36;;;;;;;4.80;4.00;;;16.30;99.90;;;;;;5050699;28;20548;-84
2023/07/07 01:01:06;;;;;;;5.25;3.90;;;16.30;99.90;;;;;;5051159;28;20399;-83
2023/07/07 01:03:44;;;;;;;4.05;3.65;;;16.20;99.90;;;;;;5059461;28;20991;-83
2023/07/07 01:06:14;;;;;;;4.70;4.20;;;16.10;99.90;;;;;;5065492;28;20393;-83
2023/07/07 01:08:42;;;;;;;4.57;4.18;;;16.10;99.90;;;;;;5070386;28;20472;-82
2023/07/07 01:11:08;;;;;;;4.43;4.03;;;16.10;99.90;;;;;;5069093;28;20389;-83
2023/07/07 01:13:35;;;;;;;4.28;3.88;;;16.00;99.90;;;;;;5070903;28;20417;-83
2023/07/07 01:16:28;;;;;;;5.65;4.25;;;15.90;99.90;;;;;;5061799;28;20425;-83
2023/07/07 01:19:15;;;;;;;4.93;3.80;;;16.00;99.90;;;;;;5050484;28;20398;-83
2023/07/07 01:22:07;;;;;;;5.15;4.38;;;16.00;99.90;;;;;;5049365;28;20424;-83
2023/07/07 01:24:57;;;;;;;4.70;4.25;;;15.90;99.90;;;;;;5050414;28;20455;-83
2023/07/07 01:27:55;;;;;;;7.18;4.60;;;15.70;99.90;;;;;;5053382;28;20393;-83
2023/07/07 01:30:38;;;;;;;5.22;3.80;;;15.60;99.90;;;;;;5070043;28;20395;-84
2023/07/07 01:33:09;;;;;;;4.13;3.72;;;15.70;99.90;;;;;;5070366;28;20445;-84
2023/07/07 01:35:35;;;;;;;5.65;3.60;;;15.60;99.90;;;;;;5070161;28;20386;-84
2023/07/07 01:38:02;;;;;;;4.68;3.78;;;15.60;99.90;;;;;;5070485;28;20436;-83
2023/07/07 01:40:40;;;;;;;4.28;3.60;;;15.60;99.90;;;;;;5069946;28;20420;-82
2023/07/07 01:43:23;;;;;;;4.82;4.28;;;15.50;99.90;;;;;;5070214;28;20458;-84
2023/07/07 01:45:52;;;;;;;5.18;3.90;;;15.50;99.90;;;;;;5070127;28;20377;-83
2023/07/07 01:48:25;;;;;;;5.20;3.88;;;15.50;99.90;;;;;;5070031;28;20462;-83
2023/07/07 01:50:52;;;;;;;4.40;4.00;;;15.40;99.90;;;;;;5070575;28;20385;-83
2023/07/07 01:53:22;;;;;;;6.90;4.50;;;15.40;99.90;;;;;;5070885;28;20379;-83
2023/07/07 01:55:51;;;;;;;6.25;3.80;;;15.30;99.90;;;;;;5068979;28;20382;-83
2023/07/07 01:58:18;;;;;;;4.30;3.70;;;15.30;99.90;;;;;;5062938;28;20405;-84
2023/07/07 02:00:45;;;;;;;4.82;3.63;;;15.40;99.90;;;;;;5060060;28;20413;-83
2023/07/07 02:03:11;;;;;;;4.32;3.70;;;15.30;99.90;;;;;;5074838;28;20381;-83
2023/07/07 02:05:40;;;;;;;6.00;3.97;;;15.20;99.90;;;;;;5065291;28;20905;-83
2023/07/07 02:08:05;;;;;;;4.30;3.40;;;15.20;99.90;;;;;;5069443;28;20439;-82
2023/07/07 02:10:31;;;;;;;6.70;4.88;;;15.10;99.90;;;;;;5069911;28;20381;-83
2023/07/07 02:12:57;;;;;;;4.03;3.63;;;15.00;99.90;;;;;;5070895;28;20895;-83
2023/07/07 02:15:22;;;;;;;5.20;3.93;;;15.00;99.90;;;;;;5070279;28;20404;-83
2023/07/07 02:17:48;;;;;;;6.15;4.00;;;15.00;99.90;;;;;;5069013;28;20422;-83
2023/07/07 02:20:14;;;;;;;3.95;3.45;;;14.90;99.90;;;;;;5070185;28;20369;-83
2023/07/07 02:22:40;;;;;;;4.75;3.70;;;15.00;99.90;;;;;;5068384;28;20393;-83
2023/07/07 02:25:07;;;;;;;4.63;4.18;;;14.90;99.90;;;;;;5069744;28;20867;-83
2023/07/07 02:27:33;;;;;;;4.80;3.90;;;14.80;99.90;;;;;;5069091;28;20464;-83
2023/07/07 02:29:59;;;;;;;6.95;4.20;;;15.00;99.90;;;;;;5065613;28;20431;-84
2023/07/07 02:32:25;;;;;;;4.72;3.78;;;14.90;99.90;;;;;;5066989;28;20453;-83
2023/07/07 02:34:55;;;;;;;4.18;3.78;;;14.90;99.90;;;;;;5066735;28;20425;-83
2023/07/07 02:37:21;;;;;;;3.95;3.55;;;14.90;99.90;;;;;;5067059;28;20412;-83
2023/07/07 02:39:47;;;;;;;4.45;3.58;;;14.90;99.90;;;;;;5067628;28;20400;-83
2023/07/07 02:42:13;;;;;;;4.07;3.60;;;15.00;99.90;;;;;;5068298;28;20401;-83
2023/07/07 02:44:39;;;;;;;4.93;4.43;;;14.80;99.90;;;;;;5067442;28;20798;-83
2023/07/07 02:47:06;;;;;;;4.80;4.00;;;14.70;99.90;;;;;;5067995;28;20381;-83
2023/07/07 02:49:32;;;;;;;4.00;3.60;;;14.80;99.90;;;;;;5066501;28;20417;-83
2023/07/07 02:51:58;;;;;;;4.90;4.30;;;14.80;99.90;;;;;;5067924;28;20389;-83
2023/07/07 02:54:23;;;;;;;4.78;4.13;;;14.80;99.90;;;;;;5068542;28;20456;-83
2023/07/07 02:56:49;;;;;;;4.80;4.40;;;15.60;99.90;;;;;;5067385;28;20473;-83
2023/07/07 02:59:14;;;;;;;5.33;3.50;;;14.80;99.90;;;;;;5068641;28;20444;-83
2023/07/07 03:01:44;;;;;;;5.10;4.40;;;14.70;99.90;;;;;;5074813;28;20392;-83
2023/07/07 03:04:10;;;;;;;4.68;3.90;;;14.70;99.90;;;;;;5076454;28;20419;-83
2023/07/07 03:06:36;;;;;;;4.88;3.80;;;14.60;99.90;;;;;;5076481;28;20387;-83
2023/07/07 03:09:02;;;;;;;4.95;3.80;;;14.50;99.90;;;;;;5070261;28;20407;-83
2023/07/07 03:11:28;;;;;;;4.72;3.70;;;14.50;99.90;;;;;;5076117;28;20413;-82
2023/07/07 03:13:53;;;;;;;4.68;3.53;;;14.50;99.90;;;;;;5076547;28;20408;-83
2023/07/07 03:16:30;;;;;;;3.63;3.28;;;14.40;99.90;;;;;;5076784;28;20385;-83
2023/07/07 03:18:57;;;;;;;7.05;3.80;;;14.50;99.90;;;;;;5074216;28;20405;-83
2023/07/07 03:21:24;;;;;;;4.30;3.50;;;14.60;99.90;;;;;;5076334;28;20472;-83
2023/07/07 03:23:54;;;;;;;4.23;3.83;;;14.60;99.90;;;;;;5076511;28;20824;-83
2023/07/07 03:26:24;;;;;;;4.90;3.90;;;14.60;99.90;;;;;;5075863;28;20748;-83
2023/07/07 03:28:51;;;;;;;4.45;3.90;;;14.60;99.90;;;;;;5078970;28;20381;-83
2023/07/07 03:31:29;;;;;;;5.60;3.70;;;14.60;99.90;;;;;;5075857;28;20423;-83
2023/07/07 03:34:00;;;;;;;4.53;4.05;;;14.70;99.90;;;;;;5076195;28;20440;-83
2023/07/07 03:36:29;;;;;;;4.75;3.90;;;14.60;99.90;;;;;;5075492;28;20405;-82
2023/07/07 03:38:57;;;;;;;4.82;4.10;;;14.50;99.90;;;;;;5076444;28;20451;-83
2023/07/07 03:41:26;;;;;;;6.65;3.80;;;14.40;99.90;;;;;;5075993;28;20404;-83
2023/07/07 03:43:53;;;;;;;4.50;3.10;;;14.40;99.90;;;;;;5076215;28;20393;-83
2023/07/07 03:46:21;;;;;;;4.40;3.70;;;14.40;99.90;;;;;;5071847;28;20391;-82
2023/07/07 03:48:48;;;;;;;6.07;4.30;;;14.50;99.90;;;;;;5055845;28;20426;-83
2023/07/07 03:51:15;;;;;;;5.32;3.65;;;14.50;99.90;;;;;;5056803;28;20410;-83
2023/07/07 03:53:41;;;;;;;5.32;3.88;;;14.60;99.90;;;;;;5060538;28;20411;-82
2023/07/07 03:56:07;;;;;;;4.80;3.63;;;14.60;99.90;;;;;;5071502;28;20418;-83
2023/07/07 03:58:33;;;;;;;4.87;4.10;;;14.70;99.90;;;;;;5075383;28;20435;-83
2023/07/07 04:01:03;;;;;;;5.00;3.70;;;14.70;99.90;;;;;;5076683;28;20393;-83
2023/07/07 04:03:30;;;;;;;4.22;3.83;;;14.70;99.90;;;;;;5076714;28;20409;-83
2023/07/07 04:05:57;;;;;;;5.57;3.90;;;14.80;99.90;;;;;;5076672;28;20404;-83
2023/07/07 04:08:25;;;;;;;4.53;3.50;;;14.80;99.90;;;;;;5074758;28;20397;-82
2023/07/07 04:11:16;;;;;;;4.50;3.92;;;14.60;99.90;;;;;;5075870;28;20415;-82
2023/07/07 04:13:43;;;;;;;5.30;3.75;;;14.60;99.90;;;;;;5071952;28;20455;-83
2023/07/07 04:16:11;;;;;;;5.00;3.67;;;14.60;99.90;;;;;;5071249;28;20397;-83
2023/07/07 04:18:38;;;;;;;4.50;3.60;;;14.70;99.90;;;;;;5069085;28;20435;-83
2023/07/07 04:21:06;;;;;;;4.18;3.70;;;14.70;99.90;;;;;;5071196;28;20462;-83
2023/07/07 04:23:32;;;;;;;5.40;3.95;;;14.50;99.90;;;;;;5069653;28;20397;-82
2023/07/07 04:25:58;;;;;;;4.70;3.67;;;14.50;99.90;;;;;;5068989;28;20453;-82
2023/07/07 04:28:24;;;;;;;4.25;3.47;;;14.50;99.90;;;;;;5069333;28;20409;-82
2023/07/07 04:30:55;;;;;;;4.22;3.40;;;14.60;99.90;;;;;;5067183;28;20401;-82
2023/07/07 04:33:22;;;;;;;4.90;4.40;;;14.60;99.90;;;;;;5064007;28;20393;-82
2023/07/07 04:35:55;;;;;;;5.82;3.80;;;14.50;99.90;;;;;;5066077;28;20447;-83
2023/07/07 04:38:30;;;;;;;4.10;3.70;;;14.60;99.90;;;;;;5068986;28;20409;-82
2023/07/07 04:41:09;;;;;;;4.30;3.67;;;14.70;99.90;;;;;;5068488;28;20400;-83
2023/07/07 04:43:37;;;;;;;5.72;3.80;;;14.60;99.90;;;;;;5065472;28;20405;-82
2023/07/07 04:46:04;;;;;;;5.25;4.25;;;14.60;99.90;;;;;;5068844;28;20394;-82
2023/07/07 04:48:30;;;;;;;5.40;4.22;;;14.80;99.90;;;;;;5068912;28;20393;-81
2023/07/07 04:50:58;;;;;;;4.73;4.20;;;15.10;99.90;;;;;;5054878;28;20923;-82
2023/07/07 04:53:25;;;;;;;5.07;3.67;;;14.80;99.90;;;;;;5066105;28;20424;-81
2023/07/07 04:55:51;;;;;;;7.75;4.10;;;14.90;99.90;;;;;;5063261;28;20910;-82
2023/07/07 04:58:16;;;;;;;4.53;4.00;;;14.90;99.90;;;;;;5065751;28;20473;-84
2023/07/07 05:00:42;;;;;;;8.80;4.30;;;15.00;99.90;;;;;;5062150;28;20397;-83
2023/07/07 05:03:07;;;;;;;5.33;4.00;;;14.90;99.90;;;;;;5066173;28;20390;-84
2023/07/07 05:05:36;;;;;;;5.97;3.90;;;15.00;99.90;;;;;;5068719;28;20481;-83
2023/07/07 05:08:01;;;;;;;4.97;4.32;;;15.00;99.90;;;;;;5064905;28;20422;-82
2023/07/07 05:10:27;;;;;;;4.67;4.27;;;15.20;99.90;;;;;;5067814;28;20404;-82
2023/07/07 05:12:53;;;;;;;5.22;4.68;;;15.30;99.90;;;;;;5071798;28;20408;-83
2023/07/07 05:15:18;;;;;;;4.75;4.25;;;15.30;99.90;;;;;;5070875;28;20396;-82
2023/07/07 05:17:44;;;;;;;5.20;3.57;;;15.40;99.90;;;;;;5071949;28;20416;-82
2023/07/07 05:20:10;;;;;;;5.30;4.27;;;15.40;99.90;;;;;;5070907;28;20401;-83
2023/07/07 05:22:36;;;;;;;6.60;4.47;;;15.50;99.90;;;;;;5065902;28;20393;-83
2023/07/07 05:25:04;;;;;;;5.67;4.23;;;15.60;99.90;;;;;;5063565;28;20890;-83
2023/07/07 05:27:30;;;;;;;7.00;4.00;;;15.50;99.90;;;;;;5068119;28;20416;-82
2023/07/07 05:29:55;;;;;;;4.55;4.00;;;15.60;99.90;;;;;;5072549;28;20402;-82
2023/07/07 05:32:21;;;;;;;4.87;4.03;;;15.60;99.90;;;;;;5066827;28;20876;-83
2023/07/07 05:34:49;;;;;;;4.60;3.80;;;15.60;99.90;;;;;;5066640;28;20439;-83
2023/07/07 05:37:15;;;;;;;4.45;3.88;;;15.60;99.90;;;;;;5062408;28;20821;-83
2023/07/07 05:39:40;;;;;;;4.83;4.33;;;15.80;99.90;;;;;;5063554;28;20408;-83
2023/07/07 05:42:07;;;;;;;8.20;4.20;;;15.90;99.90;;;;;;5061998;28;20386;-82
2023/07/07 05:44:32;;;;;;;7.03;4.20;;;16.00;99.90;;;;;;5071472;28;20389;-81
2023/07/07 05:46:58;;;;;;;4.95;4.45;;;16.10;99.90;;;;;;5065737;28;20764;-82
2023/07/07 05:49:23;;;;;;;6.20;4.27;;;16.30;99.90;;;;;;5061937;28;20922;-83
2023/07/07 05:51:49;;;;;;;5.18;4.20;;;16.40;99.90;;;;;;5061826;28;20401;-83
2023/07/07 05:54:14;;;;;;;4.70;4.10;;;16.60;99.90;;;;;;5062713;28;20879;-83
2023/07/07 05:56:40;;;;;;;4.20;3.73;;;16.60;99.90;;;;;;5062020;28;20385;-83
2023/07/07 05:59:06;;;;;;;5.28;3.80;;;16.60;99.90;;;;;;5059339;28;20402;-83
2023/07/07 06:01:33;;;;;;;4.28;3.88;;;16.70;99.90;;;;;;5062146;28;20446;-83
2023/07/07 06:03:59;;;;;;;4.38;3.80;;;16.80;99.90;;;;;;5060534;28;20385;-83
2023/07/07 06:06:24;;;;;;;4.50;3.80;;;16.90;99.90;;;;;;5059636;28;20420;-82
2023/07/07 06:08:50;;;;;;;5.50;3.57;;;17.00;99.90;;;;;;5060517;28;20385;-83
2023/07/07 06:11:16;;;;;;;4.00;3.60;;;17.00;99.90;;;;;;5059075;28;20400;-84
2023/07/07 06:13:41;;;;;;;4.70;4.20;;;17.10;99.90;;;;;;5061484;28;20400;-84
2023/07/07 06:16:07;;;;;;;5.75;4.30;;;17.20;99.90;;;;;;5060330;28;20793;-82
2023/07/07 06:18:33;;;;;;;5.40;3.90;;;17.30;99.90;;;;;;5060218;28;20415;-82
2023/07/07 06:21:01;;;;;;;5.00;4.00;;;17.40;99.90;;;;;;5051590;28;20457;-82
2023/07/07 06:23:27;;;;;;;4.03;3.65;;;17.50;99.90;;;;;;5049869;28;20465;-82
2023/07/07 06:25:53;;;;;;;4.40;3.78;;;17.60;99.90;;;;;;5050238;28;20406;-82
2023/07/07 06:28:19;;;;;;;4.55;4.10;;;17.80;99.90;;;;;;5053387;28;20570;-82
2023/07/07 06:30:48;;;;;;;4.22;3.83;;;18.00;99.90;;;;;;5059582;28;20397;-80
2023/07/07 06:33:14;;;;;;;4.47;4.07;;;18.40;99.90;;;;;;5049816;28;20413;-81
2023/07/07 06:35:41;;;;;;;5.43;4.35;;;18.70;99.90;;;;;;5047396;28;20420;-82
2023/07/07 06:38:06;;;;;;;4.30;3.80;;;18.90;99.90;;;;;;5054881;28;20413;-82
2023/07/07 06:40:34;;;;;;;3.77;3.43;;;19.00;99.90;;;;;;5053791;28;20475;-82
2023/07/07 06:42:59;;;;;;;4.30;3.90;;;19.00;99.90;;;;;;5055013;28;20901;-82
2023/07/07 06:45:25;;;;;;;5.97;3.90;;;19.20;99.90;;;;;;5048123;28;20409;-82
2023/07/07 06:47:51;;;;;;;5.47;3.90;;;19.30;99.90;;;;;;5055170;28;20416;-81
2023/07/07 06:50:35;;;;;;;4.07;3.67;;;19.40;99.90;;;;;;5049588;28;20421;-81
2023/07/07 06:53:01;;;;;;;4.88;4.10;;;19.40;99.90;;;;;;5050426;28;20417;-80
2023/07/07 06:55:27;;;;;;;5.10;3.90;;;19.30;99.90;;;;;;5054431;28;20426;-83
2023/07/07 06:57:52;;;;;;;4.63;4.00;;;19.40;99.90;;;;;;5047124;28;20413;-83
2023/07/07 07:00:18;;;;;;;5.90;3.90;;;19.40;99.90;;;;;;5050031;28;20397;-83
2023/07/07 07:02:45;;;;;;;5.18;4.40;;;19.40;99.90;;;;;;5050412;28;20382;-83
2023/07/07 07:05:11;;;;;;;5.93;4.60;;;19.40;99.90;;;;;;5054592;28;20416;-83
2023/07/07 07:07:36;;;;;;;5.97;4.20;;;19.30;99.90;;;;;;5045657;28;20405;-83
2023/07/07 07:10:04;;;;;;;5.63;4.05;;;19.50;99.90;;;;;;5055521;28;20405;-84
2023/07/07 07:12:31;;;;;;;4.68;4.07;;;19.70;1.00;;;;;;5055711;28;20402;-84
2023/07/07 07:14:56;;;;;;;4.60;3.80;;;19.80;1.00;;;;;;5055661;28;20420;-83
2023/07/07 07:17:23;;;;;;;5.67;4.67;;;19.80;47.30;;;;;;5056276;28;20389;-83
2023/07/07 07:19:48;;;;;;;5.00;3.80;;;19.80;99.90;;;;;;5051525;28;20937;-83
2023/07/07 07:22:14;;;;;;;5.18;3.90;;;19.80;99.90;;;;;;5051910;28;20397;-82
2023/07/07 07:24:41;;;;;;;5.32;3.78;;;20.00;99.90;;;;;;5059547;28;20385;-82
2023/07/07 07:27:07;;;;;;;7.20;3.80;;;20.20;99.90;;;;;;5070593;28;20397;-83
2023/07/07 07:29:32;;;;;;;6.47;3.97;;;20.20;99.90;;;;;;5060748;28;20385;-80
2023/07/07 07:31:58;;;;;;;5.40;3.90;;;20.30;99.90;;;;;;5062695;28;20830;-82
2023/07/07 07:34:25;;;;;;;5.00;4.30;;;20.30;99.90;;;;;;5070574;28;20461;-82
2023/07/07 07:36:51;;;;;;;5.80;4.20;;;20.30;99.90;;;;;;5059781;28;20459;-83
2023/07/07 07:39:17;;;;;;;4.55;3.63;;;20.30;99.90;;;;;;5050365;28;20425;-83
2023/07/07 07:41:46;;;;;;;6.40;4.00;;;20.40;99.90;;;;;;5049515;28;20409;-83
2023/07/07 07:44:12;;;;;;;3.60;3.30;;;20.40;99.90;;;;;;5053957;28;20405;-82
2023/07/07 07:46:37;;;;;;;5.05;4.03;;;20.50;99.90;;;;;;5049791;28;20440;-83
2023/07/07 07:49:03;;;;;;;4.73;3.63;;;20.60;99.90;;;;;;5056402;28;20409;-82
2023/07/07 07:51:29;;;;;;;5.07;4.00;;;20.50;99.90;;;;;;5056946;28;20925;-82
2023/07/07 07:53:54;;;;;;;4.53;3.80;;;20.50;99.90;;;;;;5051782;28;20427;-82
2023/07/07 07:56:19;;;;;;;3.85;3.42;;;20.70;99.90;;;;;;5054525;28;20466;-83
2023/07/07 07:58:46;;;;;;;4.80;3.60;;;20.60;99.90;;;;;;5059410;28;20873;-81
2023/07/07 08:01:11;;;;;;;4.15;3.75;;;20.80;99.90;;;;;;5063985;28;20427;-83
2023/07/07 08:03:37;;;;;;;4.70;3.50;;;20.80;99.90;;;;;;5063159;28;20401;-82
2023/07/07 08:06:02;;;;;;;4.80;4.00;;;20.90;99.90;;;;;;5056002;28;20451;-83
2023/07/07 08:08:28;;;;;;;4.40;3.47;;;21.00;99.90;;;;;;5052497;28;20399;-83
2023/07/07 08:10:53;;;;;;;5.87;3.37;;;21.10;99.90;;;;;;5057698;28;20831;-83
2023/07/07 08:13:19;;;;;;;5.97;3.80;;;21.10;99.90;;;;;;5057036;28;20405;-83
2023/07/07 08:15:44;;;;;;;4.80;3.60;;;21.10;99.90;;;;;;5054758;28;20413;-83
2023/07/07 08:18:10;;;;;;;4.68;3.90;;;21.10;99.90;;;;;;5048315;28;20780;-82
2023/07/07 08:20:36;;;;;;;4.80;3.80;;;21.30;99.90;;;;;;5058840;28;20409;-82
2023/07/07 08:23:01;;;;;;;3.90;3.50;;;21.40;99.90;;;;;;5057282;28;20406;-82
2023/07/07 08:25:27;;;;;;;4.40;4.00;;;21.50;99.90;;;;;;5042013;28;20383;-82
2023/07/07 08:27:53;;;;;;;5.60;3.80;;;21.60;84.90;;;;;;5035921;28;21397;-80
2023/07/07 08:30:19;;;;;;;4.88;4.10;;;21.60;70.30;;;;;;5029401;28;20489;-82
2023/07/07 08:32:45;;;;;;;5.10;4.00;;;21.60;26.70;;;;;;5030471;28;20398;-82
2023/07/07 08:35:11;;;;;;;5.77;3.80;;;21.70;1.00;;;;;;5031478;28;20429;-82
2023/07/07 08:37:37;;;;;;;6.05;3.78;;;21.70;1.00;;;;;;5029326;28;20779;-82
2023/07/07 08:40:04;;;;;;;6.10;3.67;;;21.70;1.00;;;;;;5042778;28;20417;-82
2023/07/07 08:42:36;;;;;;;4.63;3.70;;;21.80;1.00;;;;;;5059743;28;20468;-83
2023/07/07 08:45:11;;;;;;;5.70;4.10;;;21.70;1.00;;;;;;5061374;28;20396;-82
2023/07/07 08:47:45;;;;;;;4.28;3.83;;;21.80;1.00;;;;;;5055813;28;20416;-83
2023/07/07 08:50:32;;;;;;;5.10;3.80;;;21.80;1.00;;;;;;5058054;28;20416;-83
2023/07/07 08:53:26;;;;;;;4.65;3.70;;;22.10;1.00;;;;;;5049322;28;20410;-81
2023/07/07 08:56:25;;;;;;;5.60;3.67;;;22.30;1.00;;;;;;5057529;28;20744;-82
2023/07/07 08:59:10;;;;;;;7.25;4.40;;;22.40;1.00;;;;;;5040604;28;20412;-83
2023/07/07 09:02:00;;;;;;;6.50;3.93;;;22.20;1.00;;;;;;5051875;28;20389;-86
2023/07/07 09:04:37;;;;;;;5.22;4.30;;;22.30;1.00;;;;;;5043976;28;20401;-86
2023/07/07 09:07:17;;;;;;;4.70;3.90;;;22.30;1.00;;;;;;5052375;28;20448;-85
2023/07/07 09:10:05;;;;;;;4.95;4.10;;;22.40;1.00;;;;;;5046384;28;20447;-86
2023/07/07 09:12:45;;;;;;;6.43;4.18;;;22.50;1.00;;;;;;5044381;28;20385;-83
2023/07/07 09:15:25;;;;;;;7.25;4.07;;;22.50;1.00;;;;;;5065552;28;20540;-82
2023/07/07 09:18:00;;;;;;;4.80;3.90;;;22.60;1.00;;;;;;5056789;28;20474;-82
2023/07/07 09:20:28;;;;;;;5.75;4.28;;;22.60;1.00;;;;;;5057362;28;20415;-83
2023/07/07 09:23:14;;;;;;;4.65;4.05;;;22.60;1.00;;;;;;5055768;28;20899;-83
2023/07/07 09:26:00;;;;;;;7.05;4.13;;;22.70;1.00;;;;;;5055076;28;20405;-83
2023/07/07 09:28:32;;;;;;;4.60;3.90;;;23.00;17.90;;;;;;5051795;28;20929;-83
2023/07/07 09:31:09;;;;;;;5.05;4.20;;;23.30;99.90;;;;;;5053835;28;20439;-82
2023/07/07 09:33:34;;;;;;;4.75;3.72;;;23.10;99.90;;;;;;5054051;28;20763;-84
2023/07/07 09:36:12;;;;;;;6.20;4.17;;;23.20;99.90;;;;;;5062034;28;20395;-83
2023/07/07 09:39:16;;;;;;;5.22;4.35;;;23.30;99.90;;;;;;5062294;28;20436;-82
2023/07/07 09:41:55;;;;;;;5.20;4.05;;;23.30;99.90;;;;;;5059109;28;20396;-83
2023/07/07 09:44:26;;;;;;;5.18;3.80;;;23.60;99.90;;;;;;5059631;28;20384;-82
2023/07/07 09:47:05;;;;;;;3.95;3.53;;;23.60;99.90;;;;;;5043259;28;20385;-83
2023/07/07 09:49:36;;;;;;;5.13;4.60;;;23.80;99.90;;;;;;5057643;28;20457;-83
2023/07/07 09:52:27;;;;;;;6.70;4.20;;;23.90;99.90;;;;;;5056791;28;20397;-83
2023/07/07 09:54:54;;;;;;;5.20;4.18;;;24.00;99.90;;;;;;5043365;28;20402;-83
2023/07/07 09:57:34;;;;;;;3.80;3.40;;;24.10;99.90;;;;;;5059600;28;20387;-83
2023/07/07 10:00:02;;;;;;;4.73;4.07;;;24.10;99.90;;;;;;5071520;28;20428;-81
2023/07/07 10:02:28;;;;;;;5.63;3.95;;;24.30;99.90;;;;;;5069416;28;20385;-81
2023/07/07 10:05:06;;;;;;;6.78;4.20;;;24.40;99.90;;;;;;5070121;28;20390;-81
2023/07/07 10:07:36;;;;;;;5.97;4.20;;;24.60;99.90;;;;;;5073434;28;20391;-81
2023/07/07 10:10:04;;;;;;;7.20;4.70;;;24.50;99.90;;;;;;5072399;28;20393;-82
2023/07/07 10:12:30;;;;;;;6.70;4.03;;;24.60;99.90;;;;;;5063381;28;20457;-83
2023/07/07 10:14:56;;;;;;;5.05;3.70;;;24.70;99.90;;;;;;5062019;28;20458;-82
2023/07/07 10:17:50;;;;;;;4.40;3.97;;;24.80;99.90;;;;;;5053459;28;20395;-83
2023/07/07 10:20:16;;;;;;;6.68;4.20;;;24.80;99.90;;;;;;5071048;28;20492;-82
2023/07/07 10:22:42;;;;;;;5.40;4.38;;;24.90;99.90;;;;;;5069285;28;20407;-82
2023/07/07 10:25:13;;;;;;;4.72;3.60;;;25.00;99.90;;;;;;5073167;28;20404;-81
2023/07/07 10:27:46;;;;;;;4.60;4.07;;;25.10;99.90;;;;;;5055627;28;20381;-83
2023/07/07 10:30:12;;;;;;;4.88;3.90;;;25.20;99.90;;;;;;5052050;28;20405;-82
2023/07/07 10:32:38;;;;;;;6.55;4.07;;;25.30;99.90;;;;;;5054465;28;20413;-83
2023/07/07 10:35:06;;;;;;;5.00;3.70;;;25.50;99.90;;;;;;5046793;28;20439;-82
2023/07/07 10:37:33;;;;;;;6.07;4.38;;;25.40;99.90;;;;;;5039593;28;20381;-83
2023/07/07 10:40:01;;;;;;;5.35;4.47;;;25.50;99.90;;;;;;5053347;28;20452;-83
2023/07/07 10:42:28;;;;;;;5.40;4.47;;;25.60;99.90;;;;;;5048063;28;20749;-81
2023/07/07 10:44:59;;;;;;;5.15;3.95;;;25.70;99.90;;;;;;5041445;28;20395;-83
2023/07/07 10:47:37;;;;;;;5.50;4.37;;;25.50;99.90;;;;;;5056157;28;20397;-82
2023/07/07 10:50:10;;;;;;;4.80;4.30;;;25.70;99.90;;;;;;5056683;28;20742;-83
2023/07/07 10:53:05;;;;;;;6.77;4.27;;;25.90;99.90;;;;;;5048898;28;20401;-84
2023/07/07 10:55:45;;;;;;;4.43;3.90;;;26.00;99.90;;;;;;5049125;28;20895;-82
2023/07/07 10:58:25;;;;;;;4.87;4.37;;;26.10;99.90;;;;;;5048574;28;20409;-83
2023/07/07 11:01:13;;;;;;;4.47;4.00;;;26.20;99.90;;;;;;5045685;28;20386;-83
2023/07/07 11:03:57;;;;;;;4.47;4.07;;;26.30;99.90;;;;;;5001955;28;20401;-84
2023/07/07 11:06:59;;;;;;;4.20;3.80;;;26.40;99.90;;;;;;5058864;28;20837;-82
2023/07/07 11:09:29;;;;;;;4.80;4.30;;;26.50;99.90;;;;;;5046132;28;20449;-84
2023/07/07 11:12:32;;;;;;;5.13;4.07;;;26.70;99.90;;;;;;5052087;28;20488;-84
2023/07/07 11:15:25;;;;;;;4.80;4.10;;;26.60;99.90;;;;;;5047713;28;20409;-84
2023/07/07 11:18:15;;;;;;;6.30;4.00;;;26.90;99.90;;;;;;5050516;28;20459;-83
2023/07/07 11:21:19;;;;;;;4.78;4.20;;;27.10;99.90;;;;;;5052816;28;20767;-84
2023/07/07 11:24:17;;;;;;;4.93;4.15;;;27.20;99.90;;;;;;5041314;28;20393;-83
2023/07/07 11:27:15;;;;;;;5.40;4.32;;;27.40;99.90;;;;;;5048749;28;20409;-83
2023/07/07 11:29:46;;;;;;;4.68;4.00;;;27.50;99.90;;;;;;5023679;28;20416;-82
2023/07/07 11:32:32;;;;;;;5.03;4.25;;;27.60;99.90;;;;;;5053917;28;20485;-82
2023/07/07 11:35:07;;;;;;;5.25;4.20;;;28.00;99.90;;;;;;5058341;28;20393;-82
2023/07/07 11:37:50;;;;;;;5.20;4.20;;;28.40;99.90;;;;;;5095216;22;20438;-82
2023/07/07 11:40:21;;;;;;;5.60;3.95;;;28.40;99.90;;;;;;5068187;28;20381;-82
2023/07/07 11:43:02;;;;;;;5.30;4.43;;;28.50;99.90;;;;;;5067269;28;20440;-83
2023/07/07 11:45:31;;;;;;;5.45;4.30;;;29.20;99.90;;;;;;5084181;28;20399;-83
2023/07/07 11:48:26;;;;;;;6.00;4.30;;;29.80;99.90;;;;;;5083352;28;20417;-83
2023/07/07 11:51:04;;;;;;;5.00;4.45;;;30.40;99.90;;;;;;5075284;28;20400;-79
2023/07/07 11:53:53;;;;;;;7.35;4.80;;;30.30;99.90;;;;;;5067980;28;20403;-79
2023/07/07 11:56:49;;;;;;;4.40;3.90;;;30.80;99.90;;;;;;5028931;28;20417;-78
2023/07/07 11:59:36;;;;;;;5.53;4.30;;;31.80;99.90;;;;;;5056360;28;20409;-79
2023/07/07 12:02:11;;;;;;;5.40;3.92;;;32.00;99.90;;;;;;5060439;28;20413;-79
2023/07/07 12:04:43;;;;;;;6.87;4.17;;;32.60;99.90;;;;;;5059175;28;20405;-78
2023/07/07 12:07:36;;;;;;;4.10;3.70;;;32.80;99.90;;;;;;5064488;28;20403;-80
2023/07/07 12:10:18;;;;;;;4.30;3.90;;;32.30;99.90;;;;;;5058959;28;20408;-80
2023/07/07 12:13:07;;;;;;;4.10;3.70;;;32.30;99.90;;;;;;5064559;28;20466;-79
2023/07/07 12:15:43;;;;;;;4.50;3.88;;;31.90;99.90;;;;;;5065054;28;20400;-79
2023/07/07 12:18:14;;;;;;;4.80;4.10;;;32.20;99.90;;;;;;5072009;28;20528;-80
2023/07/07 12:20:55;;;;;;;5.15;4.03;;;32.90;99.90;;;;;;5074585;28;20403;-79
2023/07/07 12:23:29;;;;;;;5.25;3.95;;;32.60;99.90;;;;;;5068206;28;20369;-78
2023/07/07 12:26:07;;;;;;;4.45;4.03;;;32.40;99.90;;;;;;5079906;28;20394;-82
2023/07/07 12:28:32;;;;;;;5.10;4.10;;;32.50;99.90;;;;;;5074043;28;20407;-83
2023/07/07 12:30:58;;;;;;;4.23;3.83;;;32.10;99.90;;;;;;5073812;28;20436;-82
2023/07/07 12:33:24;;;;;;;5.78;4.05;;;32.10;99.90;;;;;;5067713;28;20407;-83
2023/07/07 12:35:56;;;;;;;4.43;3.40;;;32.40;99.90;;;;;;5063136;28;20421;-82
2023/07/07 12:38:33;;;;;;;5.22;3.72;;;32.20;99.90;;;;;;5067847;28;20413;-83
2023/07/07 12:41:06;;;;;;;4.63;3.75;;;32.30;99.90;;;;;;5078725;28;20391;-82
2023/07/07 12:43:38;;;;;;;6.38;3.95;;;32.50;99.90;;;;;;5072145;28;20401;-80
2023/07/07 12:46:06;;;;;;;4.55;4.05;;;33.10;99.90;;;;;;5067875;28;20895;-81
2023/07/07 12:48:32;;;;;;;5.33;3.90;;;32.80;99.90;;;;;;5074356;28;20403;-81
2023/07/07 12:51:10;;;;;;;5.95;3.95;;;32.80;99.90;;;;;;5071776;28;20457;-79
2023/07/07 12:53:41;;;;;;;4.53;4.10;;;31.90;99.90;;;;;;5066891;28;20467;-80
2023/07/07 12:56:06;;;;;;;5.97;4.10;;;32.30;99.90;;;;;;5065278;28;20465;-81
2023/07/07 12:58:55;;;;;;;6.70;4.47;;;31.90;99.90;;;;;;5079286;28;20468;-81
2023/07/07 13:01:36;;;;;;;5.15;4.00;;;32.10;99.90;;;;;;5076891;28;20410;-80
2023/07/07 13:04:16;;;;;;;5.00;4.50;;;32.00;99.90;;;;;;5069623;28;20467;-79
2023/07/07 13:07:06;;;;;;;6.10;4.10;;;32.30;99.90;;;;;;5062308;28;20404;-79
2023/07/07 13:09:49;;;;;;;5.13;4.10;;;32.20;99.90;;;;;;5069534;28;20774;-81